createdAt,value
2023-04-17T00:00:09.287Z,17.9
2023-04-17T00:06:02.292Z,17.9
2023-04-17T00:12:08.909Z,17.8
2023-04-17T00:18:00.596Z,17.6
2023-04-17T00:23:36.829Z,17.7
2023-04-17T00:28:58.320Z,17.9
2023-04-17T00:34:50.438Z,17.9
2023-04-17T00:40:41.531Z,17.8
2023-04-17T00:46:33.385Z,17.8
2023-04-17T00:52:25.056Z,17.6
2023-04-17T00:58:16.374Z,17.6
2023-04-17T01:04:11.849Z,17.8
2023-04-17T01:09:48.203Z,17.8
2023-04-17T01:15:23.335Z,17.8
2023-04-17T01:21:15.685Z,17.7
2023-04-17T01:27:07.071Z,17.6
2023-04-17T01:32:58.544Z,17.6
2023-04-17T01:38:34.934Z,17.8
2023-04-17T01:44:26.437Z,17.8
2023-04-17T01:50:02.767Z,17.7
2023-04-17T01:55:54.663Z,17.6
2023-04-17T02:01:30.856Z,17.6
2023-04-17T02:07:08.284Z,17.6
2023-04-17T02:13:00.942Z,17.7
2023-04-17T02:18:36.756Z,17.8
2023-04-17T02:24:13.154Z,17.7
2023-04-17T02:30:05.355Z,17.6
2023-04-17T02:35:56.736Z,17.5
2023-04-17T02:41:48.048Z,17.6
2023-04-17T02:47:40.341Z,17.7
2023-04-17T02:53:16.458Z,17.8
2023-04-17T02:59:07.920Z,17.7
2023-04-17T03:05:01.750Z,17.6
2023-04-17T03:10:53.684Z,17.5
2023-04-17T03:16:47.115Z,17.5
2023-04-17T03:22:39.689Z,17.7
2023-04-17T03:28:15.432Z,17.7
2023-04-17T03:34:09.220Z,17.6
2023-04-17T03:39:46.559Z,17.6
2023-04-17T03:45:22.910Z,17.5
2023-04-17T03:51:14.265Z,17.5
2023-04-17T03:56:50.889Z,17.7
2023-04-17T04:02:27.392Z,17.7
2023-04-17T04:08:19.264Z,17.6
2023-04-17T04:14:11.774Z,17.6
2023-04-17T04:19:47.905Z,17.4
2023-04-17T04:25:24.839Z,17.5
2023-04-17T04:31:17.978Z,17.6
2023-04-17T04:36:39.395Z,17.7
2023-04-17T04:42:18.476Z,17.6
2023-04-17T04:47:40.069Z,17.6
2023-04-17T04:53:15.757Z,17.5
2023-04-17T04:58:35.218Z,17.4
2023-04-17T05:04:14.805Z,17.6
2023-04-17T05:09:51.811Z,17.6
2023-04-17T05:15:26.833Z,17.6
2023-04-17T05:21:21.744Z,17.6
2023-04-17T05:27:13.058Z,17.4
2023-04-17T05:32:48.835Z,17.4
2023-04-17T05:38:25.725Z,17.6
2023-04-17T05:44:04.757Z,17.7
2023-04-17T05:49:40.738Z,17.6
2023-04-17T05:55:17.563Z,17.6
2023-04-17T06:01:08.517Z,17.5
2023-04-17T06:06:48.659Z,17.4
2023-04-17T06:12:27.773Z,17.5
2023-04-17T06:18:03.869Z,17.7
2023-04-17T06:23:41.135Z,17.7
2023-04-17T06:29:17.378Z,17.6
2023-04-17T06:35:02.514Z,17.6
2023-04-17T06:40:37.951Z,17.4
2023-04-17T06:45:59.635Z,17.4
2023-04-17T06:51:35.606Z,17.7
2023-04-17T06:57:10.905Z,17.7
2023-04-17T07:02:51.834Z,17.6
2023-04-17T07:08:13.771Z,17.6
2023-04-17T07:13:34.034Z,17.5
2023-04-17T07:19:12.306Z,17.5
2023-04-17T07:24:49.004Z,17.6
2023-04-17T07:30:25.013Z,17.7
2023-04-17T07:36:02.739Z,17.7
2023-04-17T07:41:42.096Z,17.6
2023-04-17T07:47:20.789Z,17.4
2023-04-17T07:52:45.722Z,17.4
2023-04-17T07:58:24.728Z,17.3
2023-04-17T08:03:46.954Z,17.3
2023-04-17T08:09:26.146Z,17.4
2023-04-17T08:14:59.393Z,17.6
2023-04-17T08:20:35.818Z,17.5
2023-04-17T08:26:16.039Z,17.4
2023-04-17T08:32:06.785Z,17.4
2023-04-17T08:38:04.292Z,17.3
2023-04-17T08:43:42.268Z,17.3
2023-04-17T08:49:35.001Z,17.2
2023-04-17T08:55:26.046Z,17.3
2023-04-17T09:00:47.924Z,17.4
2023-04-17T09:06:27.295Z,17.5
2023-04-17T09:12:02.990Z,17.5
2023-04-17T09:17:56.611Z,17.4
2023-04-17T09:23:18.054Z,17.4
2023-04-17T09:28:38.094Z,17.3
2023-04-17T09:34:00.570Z,17.3
2023-04-17T09:39:39.738Z,17.2
2023-04-17T09:45:31.404Z,17.3
2023-04-17T09:51:24.705Z,17.4
2023-04-17T09:57:02.066Z,17.6
2023-04-17T10:02:54.364Z,17.5
2023-04-17T10:08:47.638Z,17.4
2023-04-17T10:14:39.638Z,17.4
2023-04-17T10:20:33.130Z,17.4
2023-04-17T10:26:26.900Z,17.3
2023-04-17T10:32:21.298Z,17.2
2023-04-17T10:38:14.754Z,17.4
2023-04-17T10:43:52.761Z,17.5
2023-04-17T10:49:46.336Z,17.5
2023-04-17T10:55:38.092Z,17.4
2023-04-17T11:01:34.237Z,17.4
2023-04-17T11:07:12.618Z,17.4
2023-04-17T11:13:06.053Z,17.3
2023-04-17T11:18:43.753Z,17.3
2023-04-17T11:24:20.555Z,17.3
2023-04-17T11:29:56.647Z,17.5
2023-04-17T11:35:18.785Z,17.6
2023-04-17T11:40:55.593Z,17.5
2023-04-17T11:46:32.527Z,17.5
2023-04-17T11:52:25.072Z,17.4
2023-04-17T11:58:16.312Z,17.4
2023-04-17T12:04:10.366Z,17.3
2023-04-17T12:09:48.707Z,17.5
2023-04-17T12:15:40.607Z,17.8
2023-04-17T12:21:17.107Z,17.7
2023-04-17T12:27:08.981Z,17.6
2023-04-17T12:32:45.716Z,17.6
2023-04-17T12:38:21.823Z,17.6
2023-04-17T12:44:12.235Z,17.6
2023-04-17T12:50:05.712Z,17.6
2023-04-17T12:55:57.019Z,17.6
2023-04-17T13:01:49.561Z,17.5
2023-04-17T13:07:27.680Z,17.4
2023-04-17T13:13:03.042Z,17.4
2023-04-17T13:18:57.152Z,17.4
2023-04-17T13:24:48.827Z,17.3
2023-04-17T13:30:42.239Z,17.3
2023-04-17T13:36:37.780Z,17.2
2023-04-17T13:42:14.663Z,17.2
2023-04-17T13:48:08.191Z,17.1
2023-04-17T13:54:01.608Z,17.1
2023-04-17T14:11:13.429Z,16.9
2023-04-17T14:17:04.654Z,16.9
2023-04-17T14:22:33.173Z,16.9
2023-04-17T14:28:10.139Z,16.8
2023-04-17T14:33:46.520Z,16.8
2023-04-17T14:39:42.919Z,16.8
2023-04-17T14:45:36.760Z,16.7
2023-04-17T14:51:39.792Z,16.7
2023-04-17T14:57:30.108Z,16.6
2023-04-17T15:03:23.454Z,16.6
2023-04-17T15:09:00.299Z,16.6
2023-04-17T15:14:51.976Z,16.6
2023-04-17T15:20:44.445Z,16.5
2023-04-17T15:26:35.892Z,16.5
2023-04-17T15:32:26.759Z,16.5
2023-04-17T15:38:18.530Z,16.5
2023-04-17T15:44:11.864Z,16.5
2023-04-17T15:50:28.214Z,16.6
2023-04-17T15:56:22.767Z,16.6
2023-04-17T16:02:14.046Z,16.6
2023-04-17T16:07:51.676Z,16.6
2023-04-17T16:13:43.774Z,16.6
2023-04-17T16:19:35.433Z,16.6
2023-04-17T16:25:26.512Z,16.6
2023-04-17T16:31:03.845Z,16.6
2023-04-17T16:36:45.048Z,16.6
2023-04-17T16:42:22.246Z,16.5
2023-04-17T16:48:53.694Z,16.5
2023-04-17T16:54:46.735Z,16.5
2023-04-17T17:00:37.210Z,16.5
2023-04-17T17:06:30.933Z,16.5
2023-04-17T17:11:36.125Z,16.4
2023-04-17T17:17:12.062Z,16.4
2023-04-17T17:23:04.219Z,16.5
2023-04-17T17:28:38.731Z,16.4
2023-04-17T17:34:26.893Z,16.4
2023-04-17T17:40:04.126Z,16.4
2023-04-17T17:45:55.410Z,16.4
2023-04-17T17:51:49.236Z,16.4
2023-04-17T17:57:35.649Z,16.4
2023-04-17T18:03:18.847Z,16.4
2023-04-17T18:08:56.391Z,16.4
2023-04-17T18:14:18.064Z,16.4
2023-04-17T18:19:54.531Z,16.4
2023-04-17T18:25:30.181Z,16.4
2023-04-17T18:31:06.642Z,16.3
2023-04-17T18:36:58.448Z,16.3
2023-04-17T18:42:36.805Z,16.3
2023-04-17T18:48:13.862Z,16.3
2023-04-17T18:53:56.079Z,16.4
2023-04-17T18:59:32.587Z,16.8
2023-04-17T19:04:39.726Z,17.1
2023-04-17T19:10:33.102Z,17.3
2023-04-17T19:16:25.646Z,17.3
2023-04-17T19:22:18.684Z,17.3
2023-04-17T19:28:11.655Z,17.3
2023-04-17T19:33:48.917Z,17.2
2023-04-17T19:39:11.620Z,17.2
2023-04-17T19:45:18.382Z,17.2
2023-04-17T19:51:11.698Z,17.4
2023-04-17T19:56:19.273Z,17.5
2023-04-17T20:02:14.884Z,17.6
2023-04-17T20:07:37.364Z,17.6
2023-04-17T20:13:29.774Z,17.5
2023-04-17T20:19:06.332Z,17.4
2023-04-17T20:25:00.181Z,17.4
2023-04-17T20:30:52.632Z,17.4
2023-04-17T20:36:44.866Z,17.3
2023-04-17T20:42:05.230Z,17.4
2023-04-17T20:48:11.812Z,17.6
2023-04-17T20:54:02.458Z,17.7
2023-04-17T20:59:53.135Z,17.7
2023-04-17T21:05:44.706Z,17.6
2023-04-17T21:11:21.139Z,17.6
2023-04-17T21:16:41.846Z,17.5
2023-04-17T21:22:18.724Z,17.4
2023-04-17T21:27:54.034Z,17.4
2023-04-17T21:33:30.349Z,17.3
2023-04-17T21:39:06.775Z,17.4
2023-04-17T21:45:00.390Z,17.6
2023-04-17T21:50:51.520Z,17.7
2023-04-17T21:56:43.825Z,17.7
2023-04-17T22:02:34.785Z,17.6
2023-04-17T22:08:37.653Z,17.5
2023-04-17T22:13:43.291Z,17.4
2023-04-17T22:19:35.153Z,17.4
2023-04-17T22:25:26.530Z,17.3
2023-04-17T22:31:03.115Z,17.4
2023-04-17T22:36:38.540Z,17.6
2023-04-17T22:42:29.490Z,17.7
2023-04-17T22:47:51.670Z,17.7
2023-04-17T22:53:28.236Z,17.6
2023-04-17T22:59:14.315Z,17.6
2023-04-17T23:05:07.647Z,17.4
2023-04-17T23:10:43.688Z,17.4
2023-04-17T23:16:04.008Z,17.4
2023-04-17T23:21:41.433Z,17.3
2023-04-17T23:27:07.161Z,17.4
2023-04-17T23:32:43.166Z,17.6
2023-04-17T23:38:20.050Z,17.6
2023-04-17T23:43:56.199Z,17.6
2023-04-17T23:49:48.397Z,17.5
2023-04-17T23:55:40.835Z,17.5
